sensor_id;sensor_type;location;lat;lon;timestamp;temperature;humidity
18974;DHT22;9621;48.690;9.466;2023-11-19T00:01:03;6.30;99.90
18974;DHT22;9621;48.690;9.466;2023-11-19T00:03:31;6.30;99.90
18974;DHT22;9621;48.690;9.466;2023-11-19T00:05:59;6.30;99.90
18974;DHT22;9621;48.690;9.466;2023-11-19T00:08:25;6.30;99.90
18974;DHT22;9621;48.690;9.466;2023-11-19T00:10:52;6.30;99.90
18974;DHT22;9621;48.690;9.466;2023-11-19T00:13:21;6.30;99.90
18974;DHT22;9621;48.690;9.466;2023-11-19T00:15:48;6.40;99.90
18974;DHT22;9621;48.690;9.466;2023-11-19T00:18:15;6.30;99.90
18974;DHT22;9621;48.690;9.466;2023-11-19T00:20:42;6.30;99.90
18974;DHT22;9621;48.690;9.466;2023-11-19T00:23:10;6.30;99.90
18974;DHT22;9621;48.690;9.466;2023-11-19T00:25:37;6.30;99.90
18974;DHT22;9621;48.690;9.466;2023-11-19T00:28:04;6.40;99.90
18974;DHT22;9621;48.690;9.466;2023-11-19T00:30:32;6.40;99.90
18974;DHT22;9621;48.690;9.466;2023-11-19T00:32:59;6.50;99.90
18974;DHT22;9621;48.690;9.466;2023-11-19T00:35:26;6.40;99.90
18974;DHT22;9621;48.690;9.466;2023-11-19T00:37:53;6.40;99.90
18974;DHT22;9621;48.690;9.466;2023-11-19T00:40:20;6.40;99.90
18974;DHT22;9621;48.690;9.466;2023-11-19T00:42:48;6.50;99.90
18974;DHT22;9621;48.690;9.466;2023-11-19T00:45:15;6.50;99.90
18974;DHT22;9621;48.690;9.466;2023-11-19T00:47:44;6.40;99.90
18974;DHT22;9621;48.690;9.466;2023-11-19T00:50:11;6.50;99.90
18974;DHT22;9621;48.690;9.466;2023-11-19T00:52:38;6.50;99.90
18974;DHT22;9621;48.690;9.466;2023-11-19T00:55:06;6.50;99.90
18974;DHT22;9621;48.690;9.466;2023-11-19T00:57:33;6.50;99.90
18974;DHT22;9621;48.690;9.466;2023-11-19T01:00:01;6.50;99.90
18974;DHT22;9621;48.690;9.466;2023-11-19T01:02:32;6.50;99.90
18974;DHT22;9621;48.690;9.466;2023-11-19T01:05:01;6.50;99.90
18974;DHT22;9621;48.690;9.466;2023-11-19T01:07:28;6.50;99.90
18974;DHT22;9621;48.690;9.466;2023-11-19T01:09:55;6.50;99.90
18974;DHT22;9621;48.690;9.466;2023-11-19T01:12:21;6.50;99.90
18974;DHT22;9621;48.690;9.466;2023-11-19T01:14:48;6.50;99.90
18974;DHT22;9621;48.690;9.466;2023-11-19T01:17:15;6.60;99.90
18974;DHT22;9621;48.690;9.466;2023-11-19T01:19:42;6.50;99.90
18974;DHT22;9621;48.690;9.466;2023-11-19T01:22:11;6.60;99.90
18974;DHT22;9621;48.690;9.466;2023-11-19T01:24:37;6.60;99.90
18974;DHT22;9621;48.690;9.466;2023-11-19T01:27:04;6.60;99.90
18974;DHT22;9621;48.690;9.466;2023-11-19T01:29:31;6.60;99.90
18974;DHT22;9621;48.690;9.466;2023-11-19T01:31:58;6.60;99.90
18974;DHT22;9621;48.690;9.466;2023-11-19T01:34:25;6.60;99.90
18974;DHT22;9621;48.690;9.466;2023-11-19T01:36:52;6.60;99.90
18974;DHT22;9621;48.690;9.466;2023-11-19T01:39:20;6.70;99.90
18974;DHT22;9621;48.690;9.466;2023-11-19T01:41:47;6.60;99.90
18974;DHT22;9621;48.690;9.466;2023-11-19T01:44:14;6.70;99.90
18974;DHT22;9621;48.690;9.466;2023-11-19T01:46:43;6.70;99.90
18974;DHT22;9621;48.690;9.466;2023-11-19T01:49:11;6.70;99.90
18974;DHT22;9621;48.690;9.466;2023-11-19T01:51:39;6.70;99.90
18974;DHT22;9621;48.690;9.466;2023-11-19T01:54:07;6.70;99.90
18974;DHT22;9621;48.690;9.466;2023-11-19T01:56:35;6.80;99.90
18974;DHT22;9621;48.690;9.466;2023-11-19T01:59:04;6.80;99.90
18974;DHT22;9621;48.690;9.466;2023-11-19T02:01:31;6.80;99.90
18974;DHT22;9621;48.690;9.466;2023-11-19T02:04:02;6.90;99.90
18974;DHT22;9621;48.690;9.466;2023-11-19T02:06:32;6.90;99.90
18974;DHT22;9621;48.690;9.466;2023-11-19T02:09:00;6.90;99.90
18974;DHT22;9621;48.690;9.466;2023-11-19T02:11:27;6.90;99.90
18974;DHT22;9621;48.690;9.466;2023-11-19T02:13:57;6.90;99.90
18974;DHT22;9621;48.690;9.466;2023-11-19T02:16:24;7.00;99.90
18974;DHT22;9621;48.690;9.466;2023-11-19T02:18:50;7.00;99.90
18974;DHT22;9621;48.690;9.466;2023-11-19T02:21:17;7.00;99.90
18974;DHT22;9621;48.690;9.466;2023-11-19T02:23:45;7.00;99.90
18974;DHT22;9621;48.690;9.466;2023-11-19T02:26:15;7.20;99.90
18974;DHT22;9621;48.690;9.466;2023-11-19T02:28:46;7.10;99.90
18974;DHT22;9621;48.690;9.466;2023-11-19T02:31:13;7.30;99.90
18974;DHT22;9621;48.690;9.466;2023-11-19T02:33:40;7.20;99.90
18974;DHT22;9621;48.690;9.466;2023-11-19T02:36:08;7.30;99.90
18974;DHT22;9621;48.690;9.466;2023-11-19T02:38:35;7.30;99.90
18974;DHT22;9621;48.690;9.466;2023-11-19T02:41:04;7.30;99.90
18974;DHT22;9621;48.690;9.466;2023-11-19T02:43:31;7.40;99.90
18974;DHT22;9621;48.690;9.466;2023-11-19T02:46:01;7.40;99.90
18974;DHT22;9621;48.690;9.466;2023-11-19T02:48:27;7.50;99.90
18974;DHT22;9621;48.690;9.466;2023-11-19T02:50:56;7.50;99.90
18974;DHT22;9621;48.690;9.466;2023-11-19T02:53:24;7.50;99.90
18974;DHT22;9621;48.690;9.466;2023-11-19T02:55:53;7.50;99.90
18974;DHT22;9621;48.690;9.466;2023-11-19T02:58:26;7.60;99.90
18974;DHT22;9621;48.690;9.466;2023-11-19T03:00:55;7.60;99.90
18974;DHT22;9621;48.690;9.466;2023-11-19T03:03:27;7.60;99.90
18974;DHT22;9621;48.690;9.466;2023-11-19T03:06:04;7.70;99.90
18974;DHT22;9621;48.690;9.466;2023-11-19T03:08:31;7.70;99.90
18974;DHT22;9621;48.690;9.466;2023-11-19T03:10:59;7.70;99.90
18974;DHT22;9621;48.690;9.466;2023-11-19T03:13:25;7.80;99.90
18974;DHT22;9621;48.690;9.466;2023-11-19T03:15:53;7.80;99.90
18974;DHT22;9621;48.690;9.466;2023-11-19T03:18:20;7.80;99.90
18974;DHT22;9621;48.690;9.466;2023-11-19T03:20:48;7.90;99.90
18974;DHT22;9621;48.690;9.466;2023-11-19T03:23:16;7.90;99.90
18974;DHT22;9621;48.690;9.466;2023-11-19T03:25:43;7.90;99.90
18974;DHT22;9621;48.690;9.466;2023-11-19T03:28:10;7.90;99.90
18974;DHT22;9621;48.690;9.466;2023-11-19T03:30:38;7.90;99.90
18974;DHT22;9621;48.690;9.466;2023-11-19T03:33:05;7.90;99.90
18974;DHT22;9621;48.690;9.466;2023-11-19T03:35:31;8.00;99.90
18974;DHT22;9621;48.690;9.466;2023-11-19T03:38:00;8.00;99.90
18974;DHT22;9621;48.690;9.466;2023-11-19T03:40:28;8.20;99.90
18974;DHT22;9621;48.690;9.466;2023-11-19T03:42:56;8.20;99.90
18974;DHT22;9621;48.690;9.466;2023-11-19T03:45:23;8.10;99.90
18974;DHT22;9621;48.690;9.466;2023-11-19T03:47:50;8.10;99.90
18974;DHT22;9621;48.690;9.466;2023-11-19T03:50:17;8.10;99.90
18974;DHT22;9621;48.690;9.466;2023-11-19T03:52:45;8.20;99.90
18974;DHT22;9621;48.690;9.466;2023-11-19T03:55:13;8.20;99.90
18974;DHT22;9621;48.690;9.466;2023-11-19T03:57:40;8.20;99.90
18974;DHT22;9621;48.690;9.466;2023-11-19T04:00:07;8.30;99.90
18974;DHT22;9621;48.690;9.466;2023-11-19T04:02:35;8.20;99.90
18974;DHT22;9621;48.690;9.466;2023-11-19T04:05:03;8.30;99.90
18974;DHT22;9621;48.690;9.466;2023-11-19T04:07:30;8.20;99.90
18974;DHT22;9621;48.690;9.466;2023-11-19T04:09:58;8.30;99.90
18974;DHT22;9621;48.690;9.466;2023-11-19T04:12:26;8.30;99.90
18974;DHT22;9621;48.690;9.466;2023-11-19T04:14:53;8.30;99.90
18974;DHT22;9621;48.690;9.466;2023-11-19T04:17:20;8.30;99.90
18974;DHT22;9621;48.690;9.466;2023-11-19T04:19:46;8.40;99.90
18974;DHT22;9621;48.690;9.466;2023-11-19T04:22:13;8.40;99.90
18974;DHT22;9621;48.690;9.466;2023-11-19T04:24:40;8.40;99.90
18974;DHT22;9621;48.690;9.466;2023-11-19T04:27:09;8.40;99.90
18974;DHT22;9621;48.690;9.466;2023-11-19T04:29:37;8.40;99.90
18974;DHT22;9621;48.690;9.466;2023-11-19T04:32:05;8.40;99.90
18974;DHT22;9621;48.690;9.466;2023-11-19T04:34:32;8.40;99.90
18974;DHT22;9621;48.690;9.466;2023-11-19T04:36:59;8.40;99.90
18974;DHT22;9621;48.690;9.466;2023-11-19T04:39:29;8.50;99.90
18974;DHT22;9621;48.690;9.466;2023-11-19T04:41:56;8.50;99.90
18974;DHT22;9621;48.690;9.466;2023-11-19T04:44:23;8.50;99.90
18974;DHT22;9621;48.690;9.466;2023-11-19T04:46:51;8.50;99.90
18974;DHT22;9621;48.690;9.466;2023-11-19T04:49:18;8.50;99.90
18974;DHT22;9621;48.690;9.466;2023-11-19T04:51:45;8.60;99.90
18974;DHT22;9621;48.690;9.466;2023-11-19T04:54:13;8.60;99.90
18974;DHT22;9621;48.690;9.466;2023-11-19T04:56:40;8.60;99.90
18974;DHT22;9621;48.690;9.466;2023-11-19T04:59:07;8.60;99.90
18974;DHT22;9621;48.690;9.466;2023-11-19T05:01:37;8.60;99.90
18974;DHT22;9621;48.690;9.466;2023-11-19T05:04:07;8.70;99.90
18974;DHT22;9621;48.690;9.466;2023-11-19T05:06:34;8.70;99.90
18974;DHT22;9621;48.690;9.466;2023-11-19T05:09:01;8.70;99.90
18974;DHT22;9621;48.690;9.466;2023-11-19T05:11:32;8.80;99.90
18974;DHT22;9621;48.690;9.466;2023-11-19T05:13:59;8.80;99.90
18974;DHT22;9621;48.690;9.466;2023-11-19T05:16:26;8.80;99.90
18974;DHT22;9621;48.690;9.466;2023-11-19T05:18:53;8.80;99.90
18974;DHT22;9621;48.690;9.466;2023-11-19T05:21:21;9.00;99.90
18974;DHT22;9621;48.690;9.466;2023-11-19T05:23:49;8.90;99.90
18974;DHT22;9621;48.690;9.466;2023-11-19T05:26:19;9.00;99.90
18974;DHT22;9621;48.690;9.466;2023-11-19T05:28:47;9.00;99.90
18974;DHT22;9621;48.690;9.466;2023-11-19T05:31:15;9.00;99.90
18974;DHT22;9621;48.690;9.466;2023-11-19T05:33:42;9.10;99.90
18974;DHT22;9621;48.690;9.466;2023-11-19T05:36:11;9.10;99.90
18974;DHT22;9621;48.690;9.466;2023-11-19T05:38:39;9.10;99.90
18974;DHT22;9621;48.690;9.466;2023-11-19T05:41:06;9.20;99.90
18974;DHT22;9621;48.690;9.466;2023-11-19T05:43:33;9.20;99.90
18974;DHT22;9621;48.690;9.466;2023-11-19T05:46:00;9.20;99.90
18974;DHT22;9621;48.690;9.466;2023-11-19T05:48:28;9.20;99.90
18974;DHT22;9621;48.690;9.466;2023-11-19T05:50:56;9.30;99.90
18974;DHT22;9621;48.690;9.466;2023-11-19T05:53:23;9.40;99.90
18974;DHT22;9621;48.690;9.466;2023-11-19T05:55:51;9.40;99.90
18974;DHT22;9621;48.690;9.466;2023-11-19T05:58:23;9.40;99.90
18974;DHT22;9621;48.690;9.466;2023-11-19T06:00:53;9.40;99.90
18974;DHT22;9621;48.690;9.466;2023-11-19T06:03:20;9.50;99.90
18974;DHT22;9621;48.690;9.466;2023-11-19T06:05:47;9.50;99.90
18974;DHT22;9621;48.690;9.466;2023-11-19T06:08:15;9.50;99.90
18974;DHT22;9621;48.690;9.466;2023-11-19T06:10:42;9.60;99.90
18974;DHT22;9621;48.690;9.466;2023-11-19T06:13:13;9.50;99.90
18974;DHT22;9621;48.690;9.466;2023-11-19T06:15:40;9.60;99.90
18974;DHT22;9621;48.690;9.466;2023-11-19T06:18:07;9.60;99.90
18974;DHT22;9621;48.690;9.466;2023-11-19T06:20:35;9.60;99.90
18974;DHT22;9621;48.690;9.466;2023-11-19T06:23:02;9.70;99.90
18974;DHT22;9621;48.690;9.466;2023-11-19T06:25:29;9.70;99.90
18974;DHT22;9621;48.690;9.466;2023-11-19T06:27:56;9.70;99.90
18974;DHT22;9621;48.690;9.466;2023-11-19T06:30:24;9.70;99.90
18974;DHT22;9621;48.690;9.466;2023-11-19T06:32:53;9.80;99.90
18974;DHT22;9621;48.690;9.466;2023-11-19T06:35:20;9.80;99.90
18974;DHT22;9621;48.690;9.466;2023-11-19T06:37:47;9.80;99.90
18974;DHT22;9621;48.690;9.466;2023-11-19T06:40:14;9.90;99.90
18974;DHT22;9621;48.690;9.466;2023-11-19T06:42:42;9.90;99.90
18974;DHT22;9621;48.690;9.466;2023-11-19T06:45:09;9.90;99.90
18974;DHT22;9621;48.690;9.466;2023-11-19T06:47:37;9.90;99.90
18974;DHT22;9621;48.690;9.466;2023-11-19T06:50:05;9.90;99.90
18974;DHT22;9621;48.690;9.466;2023-11-19T06:52:32;9.90;99.90
18974;DHT22;9621;48.690;9.466;2023-11-19T06:54:59;10.00;99.90
18974;DHT22;9621;48.690;9.466;2023-11-19T06:57:26;9.90;99.90
18974;DHT22;9621;48.690;9.466;2023-11-19T06:59:55;10.00;99.90
18974;DHT22;9621;48.690;9.466;2023-11-19T07:02:21;10.00;99.90
18974;DHT22;9621;48.690;9.466;2023-11-19T07:04:50;10.00;99.90
18974;DHT22;9621;48.690;9.466;2023-11-19T07:07:17;10.00;99.90
18974;DHT22;9621;48.690;9.466;2023-11-19T07:09:45;10.00;99.90
18974;DHT22;9621;48.690;9.466;2023-11-19T07:12:13;10.00;99.90
18974;DHT22;9621;48.690;9.466;2023-11-19T07:14:41;10.10;99.90
18974;DHT22;9621;48.690;9.466;2023-11-19T07:17:08;10.10;99.90
18974;DHT22;9621;48.690;9.466;2023-11-19T07:19:35;10.10;99.90
18974;DHT22;9621;48.690;9.466;2023-11-19T07:22:05;10.10;99.90
18974;DHT22;9621;48.690;9.466;2023-11-19T07:24:32;10.20;99.90
18974;DHT22;9621;48.690;9.466;2023-11-19T07:26:59;10.20;99.90
18974;DHT22;9621;48.690;9.466;2023-11-19T07:29:29;10.20;99.90
18974;DHT22;9621;48.690;9.466;2023-11-19T07:31:57;10.20;99.90
18974;DHT22;9621;48.690;9.466;2023-11-19T07:34:24;10.30;99.90
18974;DHT22;9621;48.690;9.466;2023-11-19T07:36:51;10.30;99.90
18974;DHT22;9621;48.690;9.466;2023-11-19T07:39:19;10.30;99.90
18974;DHT22;9621;48.690;9.466;2023-11-19T07:41:47;10.30;99.90
18974;DHT22;9621;48.690;9.466;2023-11-19T07:44:14;10.40;99.90
18974;DHT22;9621;48.690;9.466;2023-11-19T07:46:42;10.40;99.90
18974;DHT22;9621;48.690;9.466;2023-11-19T07:49:10;10.40;99.90
18974;DHT22;9621;48.690;9.466;2023-11-19T07:51:37;10.50;99.90
18974;DHT22;9621;48.690;9.466;2023-11-19T07:54:04;10.50;99.90
18974;DHT22;9621;48.690;9.466;2023-11-19T07:56:33;10.50;99.90
18974;DHT22;9621;48.690;9.466;2023-11-19T07:59:01;10.50;99.90
18974;DHT22;9621;48.690;9.466;2023-11-19T08:01:28;10.60;99.90
18974;DHT22;9621;48.690;9.466;2023-11-19T08:03:55;10.60;99.90
18974;DHT22;9621;48.690;9.466;2023-11-19T08:06:22;10.60;99.90
18974;DHT22;9621;48.690;9.466;2023-11-19T08:08:49;10.70;99.90
18974;DHT22;9621;48.690;9.466;2023-11-19T08:11:17;10.70;99.90
18974;DHT22;9621;48.690;9.466;2023-11-19T08:13:46;10.70;99.90
18974;DHT22;9621;48.690;9.466;2023-11-19T08:16:13;10.80;99.90
18974;DHT22;9621;48.690;9.466;2023-11-19T08:18:42;10.80;99.90
18974;DHT22;9621;48.690;9.466;2023-11-19T08:21:09;10.80;99.90
18974;DHT22;9621;48.690;9.466;2023-11-19T08:23:36;10.80;99.90
18974;DHT22;9621;48.690;9.466;2023-11-19T08:26:04;10.80;99.90
18974;DHT22;9621;48.690;9.466;2023-11-19T08:28:31;10.90;99.90
18974;DHT22;9621;48.690;9.466;2023-11-19T08:31:01;10.90;99.90
18974;DHT22;9621;48.690;9.466;2023-11-19T08:33:29;11.00;99.90
18974;DHT22;9621;48.690;9.466;2023-11-19T08:35:56;11.00;99.90
18974;DHT22;9621;48.690;9.466;2023-11-19T08:38:24;11.10;99.90
18974;DHT22;9621;48.690;9.466;2023-11-19T08:40:50;11.10;99.90
18974;DHT22;9621;48.690;9.466;2023-11-19T08:43:17;11.30;99.90
18974;DHT22;9621;48.690;9.466;2023-11-19T08:45:44;12.20;99.90
18974;DHT22;9621;48.690;9.466;2023-11-19T08:48:12;11.40;99.90
18974;DHT22;9621;48.690;9.466;2023-11-19T08:50:39;11.40;99.90
18974;DHT22;9621;48.690;9.466;2023-11-19T08:53:06;11.60;99.90
18974;DHT22;9621;48.690;9.466;2023-11-19T08:55:33;11.70;99.90
18974;DHT22;9621;48.690;9.466;2023-11-19T08:58:00;11.90;99.90
18974;DHT22;9621;48.690;9.466;2023-11-19T09:00:27;12.00;99.90
18974;DHT22;9621;48.690;9.466;2023-11-19T09:02:55;12.10;99.90
18974;DHT22;9621;48.690;9.466;2023-11-19T09:05:25;12.20;99.90
18974;DHT22;9621;48.690;9.466;2023-11-19T09:07:51;12.30;99.90
18974;DHT22;9621;48.690;9.466;2023-11-19T09:10:18;12.30;99.90
18974;DHT22;9621;48.690;9.466;2023-11-19T09:12:45;12.30;99.90
18974;DHT22;9621;48.690;9.466;2023-11-19T09:15:12;12.30;99.90
18974;DHT22;9621;48.690;9.466;2023-11-19T09:17:39;12.30;99.90
18974;DHT22;9621;48.690;9.466;2023-11-19T09:20:08;12.40;99.90
18974;DHT22;9621;48.690;9.466;2023-11-19T09:22:39;12.50;99.90
18974;DHT22;9621;48.690;9.466;2023-11-19T09:25:06;12.90;99.90
18974;DHT22;9621;48.690;9.466;2023-11-19T09:27:34;13.10;99.90
18974;DHT22;9621;48.690;9.466;2023-11-19T09:30:01;13.30;99.90
18974;DHT22;9621;48.690;9.466;2023-11-19T09:32:29;13.40;99.90
18974;DHT22;9621;48.690;9.466;2023-11-19T09:34:56;13.30;99.90
18974;DHT22;9621;48.690;9.466;2023-11-19T09:37:23;13.30;99.90
18974;DHT22;9621;48.690;9.466;2023-11-19T09:39:51;13.40;99.90
18974;DHT22;9621;48.690;9.466;2023-11-19T09:42:19;13.40;99.90
18974;DHT22;9621;48.690;9.466;2023-11-19T09:44:47;13.40;99.90
18974;DHT22;9621;48.690;9.466;2023-11-19T09:47:14;13.40;99.90
18974;DHT22;9621;48.690;9.466;2023-11-19T09:49:41;13.30;99.90
18974;DHT22;9621;48.690;9.466;2023-11-19T09:52:09;13.30;99.90
18974;DHT22;9621;48.690;9.466;2023-11-19T09:54:36;13.30;99.90
18974;DHT22;9621;48.690;9.466;2023-11-19T09:57:07;13.40;99.90
18974;DHT22;9621;48.690;9.466;2023-11-19T09:59:37;13.60;99.90
18974;DHT22;9621;48.690;9.466;2023-11-19T10:02:07;13.80;99.90
18974;DHT22;9621;48.690;9.466;2023-11-19T10:04:35;13.80;99.90
18974;DHT22;9621;48.690;9.466;2023-11-19T10:07:02;13.80;99.90
18974;DHT22;9621;48.690;9.466;2023-11-19T10:09:29;13.70;99.90
18974;DHT22;9621;48.690;9.466;2023-11-19T10:11:56;13.80;99.90
18974;DHT22;9621;48.690;9.466;2023-11-19T10:14:24;13.80;99.90
18974;DHT22;9621;48.690;9.466;2023-11-19T10:16:52;13.90;99.90
18974;DHT22;9621;48.690;9.466;2023-11-19T10:19:19;14.00;99.90
18974;DHT22;9621;48.690;9.466;2023-11-19T10:21:46;14.10;99.90
18974;DHT22;9621;48.690;9.466;2023-11-19T10:24:13;14.20;99.90
18974;DHT22;9621;48.690;9.466;2023-11-19T10:26:40;14.40;99.90
18974;DHT22;9621;48.690;9.466;2023-11-19T10:29:08;14.70;99.90
18974;DHT22;9621;48.690;9.466;2023-11-19T10:31:37;15.10;99.90
18974;DHT22;9621;48.690;9.466;2023-11-19T10:34:04;15.40;99.90
18974;DHT22;9621;48.690;9.466;2023-11-19T10:36:50;15.50;99.90
18974;DHT22;9621;48.690;9.466;2023-11-19T10:39:18;15.50;99.90
18974;DHT22;9621;48.690;9.466;2023-11-19T10:41:46;15.50;99.90
18974;DHT22;9621;48.690;9.466;2023-11-19T10:44:31;15.40;99.90
18974;DHT22;9621;48.690;9.466;2023-11-19T10:47:05;15.30;99.90
18974;DHT22;9621;48.690;9.466;2023-11-19T10:49:34;15.10;99.90
18974;DHT22;9621;48.690;9.466;2023-11-19T10:52:01;15.00;99.90
18974;DHT22;9621;48.690;9.466;2023-11-19T10:54:31;14.80;99.90
18974;DHT22;9621;48.690;9.466;2023-11-19T10:56:59;14.70;99.90
18974;DHT22;9621;48.690;9.466;2023-11-19T10:59:30;14.60;99.90
18974;DHT22;9621;48.690;9.466;2023-11-19T11:01:58;14.50;99.90
18974;DHT22;9621;48.690;9.466;2023-11-19T11:04:29;14.50;99.90
18974;DHT22;9621;48.690;9.466;2023-11-19T11:06:58;14.60;99.90
18974;DHT22;9621;48.690;9.466;2023-11-19T11:09:27;14.90;99.90
18974;DHT22;9621;48.690;9.466;2023-11-19T11:11:54;15.10;99.90
18974;DHT22;9621;48.690;9.466;2023-11-19T11:14:24;15.30;99.90
18974;DHT22;9621;48.690;9.466;2023-11-19T11:16:51;15.50;99.90
18974;DHT22;9621;48.690;9.466;2023-11-19T11:19:20;15.70;99.90
18974;DHT22;9621;48.690;9.466;2023-11-19T11:21:51;15.90;99.90
18974;DHT22;9621;48.690;9.466;2023-11-19T11:27:35;16.00;99.90
18974;DHT22;9621;48.690;9.466;2023-11-19T11:30:13;15.90;99.90
18974;DHT22;9621;48.690;9.466;2023-11-19T11:32:50;15.90;99.90
18974;DHT22;9621;48.690;9.466;2023-11-19T11:35:29;15.80;99.90
18974;DHT22;9621;48.690;9.466;2023-11-19T11:38:04;15.60;99.90
18974;DHT22;9621;48.690;9.466;2023-11-19T11:40:31;15.40;99.90
18974;DHT22;9621;48.690;9.466;2023-11-19T11:42:58;15.20;99.90
18974;DHT22;9621;48.690;9.466;2023-11-19T11:45:36;15.00;99.90
18974;DHT22;9621;48.690;9.466;2023-11-19T11:48:19;14.90;99.90
18974;DHT22;9621;48.690;9.466;2023-11-19T11:50:56;14.80;99.90
18974;DHT22;9621;48.690;9.466;2023-11-19T11:53:25;14.70;99.90
18974;DHT22;9621;48.690;9.466;2023-11-19T11:55:55;14.50;99.90
18974;DHT22;9621;48.690;9.466;2023-11-19T11:58:30;14.50;99.90
18974;DHT22;9621;48.690;9.466;2023-11-19T12:01:04;14.40;99.90
18974;DHT22;9621;48.690;9.466;2023-11-19T12:03:38;14.30;99.90
18974;DHT22;9621;48.690;9.466;2023-11-19T12:06:11;14.20;99.90
18974;DHT22;9621;48.690;9.466;2023-11-19T12:08:42;14.20;99.90
18974;DHT22;9621;48.690;9.466;2023-11-19T12:11:10;14.30;99.90
18974;DHT22;9621;48.690;9.466;2023-11-19T12:14:02;14.30;99.90
18974;DHT22;9621;48.690;9.466;2023-11-19T12:16:31;14.50;99.90
18974;DHT22;9621;48.690;9.466;2023-11-19T12:19:03;14.60;99.90
18974;DHT22;9621;48.690;9.466;2023-11-19T12:21:31;14.90;99.90
18974;DHT22;9621;48.690;9.466;2023-11-19T12:24:00;15.20;99.90
18974;DHT22;9621;48.690;9.466;2023-11-19T12:26:40;15.40;99.90
18974;DHT22;9621;48.690;9.466;2023-11-19T12:29:07;15.60;99.90
18974;DHT22;9621;48.690;9.466;2023-11-19T12:31:34;15.90;99.90
18974;DHT22;9621;48.690;9.466;2023-11-19T12:34:10;16.20;99.90
18974;DHT22;9621;48.690;9.466;2023-11-19T12:36:39;16.50;99.90
18974;DHT22;9621;48.690;9.466;2023-11-19T12:39:09;16.70;99.90
18974;DHT22;9621;48.690;9.466;2023-11-19T12:41:53;16.90;99.90
18974;DHT22;9621;48.690;9.466;2023-11-19T12:44:21;17.10;99.90
18974;DHT22;9621;48.690;9.466;2023-11-19T12:47:02;17.00;99.90
18974;DHT22;9621;48.690;9.466;2023-11-19T12:49:29;16.80;99.90
18974;DHT22;9621;48.690;9.466;2023-11-19T12:51:56;16.50;99.90
18974;DHT22;9621;48.690;9.466;2023-11-19T12:54:34;16.40;99.90
18974;DHT22;9621;48.690;9.466;2023-11-19T12:57:01;16.20;99.90
18974;DHT22;9621;48.690;9.466;2023-11-19T12:59:28;16.00;99.90
18974;DHT22;9621;48.690;9.466;2023-11-19T13:01:56;15.90;99.90
18974;DHT22;9621;48.690;9.466;2023-11-19T13:04:23;15.80;99.90
18974;DHT22;9621;48.690;9.466;2023-11-19T13:06:53;15.70;99.90
18974;DHT22;9621;48.690;9.466;2023-11-19T13:09:23;15.70;99.90
18974;DHT22;9621;48.690;9.466;2023-11-19T13:11:52;15.70;99.90
18974;DHT22;9621;48.690;9.466;2023-11-19T13:14:19;15.70;99.90
18974;DHT22;9621;48.690;9.466;2023-11-19T13:16:47;15.70;99.90
18974;DHT22;9621;48.690;9.466;2023-11-19T13:19:14;15.60;99.90
18974;DHT22;9621;48.690;9.466;2023-11-19T13:21:41;15.60;99.90
18974;DHT22;9621;48.690;9.466;2023-11-19T13:24:11;15.50;99.90
18974;DHT22;9621;48.690;9.466;2023-11-19T13:26:38;15.40;99.90
18974;DHT22;9621;48.690;9.466;2023-11-19T13:29:06;15.20;99.90
18974;DHT22;9621;48.690;9.466;2023-11-19T13:31:34;15.10;99.90
18974;DHT22;9621;48.690;9.466;2023-11-19T13:34:01;15.00;99.90
18974;DHT22;9621;48.690;9.466;2023-11-19T13:36:28;14.90;99.90
18974;DHT22;9621;48.690;9.466;2023-11-19T13:38:55;14.90;99.90
18974;DHT22;9621;48.690;9.466;2023-11-19T13:41:25;14.90;99.90
18974;DHT22;9621;48.690;9.466;2023-11-19T13:43:52;14.80;99.90
18974;DHT22;9621;48.690;9.466;2023-11-19T13:46:20;14.80;99.90
18974;DHT22;9621;48.690;9.466;2023-11-19T13:48:47;14.70;99.90
18974;DHT22;9621;48.690;9.466;2023-11-19T13:51:15;14.70;99.90
18974;DHT22;9621;48.690;9.466;2023-11-19T13:53:42;14.60;99.90
18974;DHT22;9621;48.690;9.466;2023-11-19T13:56:09;14.50;99.90
18974;DHT22;9621;48.690;9.466;2023-11-19T13:58:36;14.40;99.90
18974;DHT22;9621;48.690;9.466;2023-11-19T14:01:04;14.30;99.90
18974;DHT22;9621;48.690;9.466;2023-11-19T14:03:32;14.20;99.90
18974;DHT22;9621;48.690;9.466;2023-11-19T14:05:59;14.10;99.90
18974;DHT22;9621;48.690;9.466;2023-11-19T14:08:26;14.10;99.90
18974;DHT22;9621;48.690;9.466;2023-11-19T14:10:53;13.90;99.90
18974;DHT22;9621;48.690;9.466;2023-11-19T14:13:21;13.90;99.90
18974;DHT22;9621;48.690;9.466;2023-11-19T14:15:49;13.90;99.90
18974;DHT22;9621;48.690;9.466;2023-11-19T14:18:16;13.80;99.90
18974;DHT22;9621;48.690;9.466;2023-11-19T14:20:44;13.70;99.90
18974;DHT22;9621;48.690;9.466;2023-11-19T14:23:11;13.70;99.90
18974;DHT22;9621;48.690;9.466;2023-11-19T14:25:38;13.60;99.90
18974;DHT22;9621;48.690;9.466;2023-11-19T14:28:05;13.60;99.90
18974;DHT22;9621;48.690;9.466;2023-11-19T14:30:33;13.60;99.90
18974;DHT22;9621;48.690;9.466;2023-11-19T14:33:00;13.60;99.90
18974;DHT22;9621;48.690;9.466;2023-11-19T14:35:27;13.60;99.90
18974;DHT22;9621;48.690;9.466;2023-11-19T14:37:57;13.60;99.90
18974;DHT22;9621;48.690;9.466;2023-11-19T14:40:24;13.60;99.90
18974;DHT22;9621;48.690;9.466;2023-11-19T14:42:51;13.60;99.90
18974;DHT22;9621;48.690;9.466;2023-11-19T14:45:18;13.60;99.90
18974;DHT22;9621;48.690;9.466;2023-11-19T14:47:45;13.60;99.90
18974;DHT22;9621;48.690;9.466;2023-11-19T14:50:12;13.60;99.90
18974;DHT22;9621;48.690;9.466;2023-11-19T14:52:39;13.60;99.90
18974;DHT22;9621;48.690;9.466;2023-11-19T14:55:08;13.60;99.90
18974;DHT22;9621;48.690;9.466;2023-11-19T14:57:36;13.60;99.90
18974;DHT22;9621;48.690;9.466;2023-11-19T15:00:05;13.60;99.90
18974;DHT22;9621;48.690;9.466;2023-11-19T15:02:39;13.50;99.90
18974;DHT22;9621;48.690;9.466;2023-11-19T15:05:06;13.30;99.90
18974;DHT22;9621;48.690;9.466;2023-11-19T15:07:35;13.40;99.90
18974;DHT22;9621;48.690;9.466;2023-11-19T15:10:02;13.30;99.90
18974;DHT22;9621;48.690;9.466;2023-11-19T15:12:30;13.20;99.90
18974;DHT22;9621;48.690;9.466;2023-11-19T15:14:57;13.10;99.90
18974;DHT22;9621;48.690;9.466;2023-11-19T15:17:24;12.90;99.90
18974;DHT22;9621;48.690;9.466;2023-11-19T15:19:51;12.80;99.90
18974;DHT22;9621;48.690;9.466;2023-11-19T15:22:18;12.70;99.90
18974;DHT22;9621;48.690;9.466;2023-11-19T15:24:45;12.50;99.90
18974;DHT22;9621;48.690;9.466;2023-11-19T15:27:12;12.40;99.90
18974;DHT22;9621;48.690;9.466;2023-11-19T15:29:40;12.30;99.90
18974;DHT22;9621;48.690;9.466;2023-11-19T15:32:07;12.20;99.90
18974;DHT22;9621;48.690;9.466;2023-11-19T15:34:34;12.10;99.90
18974;DHT22;9621;48.690;9.466;2023-11-19T15:37:03;12.00;99.90
18974;DHT22;9621;48.690;9.466;2023-11-19T15:39:29;11.80;99.90
18974;DHT22;9621;48.690;9.466;2023-11-19T15:41:58;11.70;99.90
18974;DHT22;9621;48.690;9.466;2023-11-19T15:44:25;11.60;99.90
18974;DHT22;9621;48.690;9.466;2023-11-19T15:46:53;11.50;99.90
18974;DHT22;9621;48.690;9.466;2023-11-19T15:49:20;11.40;99.90
18974;DHT22;9621;48.690;9.466;2023-11-19T15:51:47;11.30;99.90
18974;DHT22;9621;48.690;9.466;2023-11-19T15:54:14;11.20;99.90
18974;DHT22;9621;48.690;9.466;2023-11-19T15:56:41;11.10;99.90
18974;DHT22;9621;48.690;9.466;2023-11-19T15:59:08;11.10;99.90
18974;DHT22;9621;48.690;9.466;2023-11-19T16:01:34;10.90;99.90